Time;durP1;ratioP1;P1;durP2;ratioP2;P2;SDS_P1;SDS_P2;PMS_P1;PMS_P2;Temp;Humidity;BMP_temperature;BMP_pressure;BME280_temperature;BME280_humidity;BME280_pressure;Samples;Min_cycle;Max_cycle;Signal;HPM_P1;HPM_P2
2022/01/20 00:01:50;;;;;;;30.30;9.57;;;3.80;99.90;;;;;;5073596;28;20300;-65
2022/01/20 00:09:48;;;;;;;23.30;10.00;;;3.80;99.90;;;;;;5074743;28;20162;-65
2022/01/20 00:23:40;;;;;;;36.67;11.47;;;3.60;99.90;;;;;;5074817;28;20200;-66
2022/01/20 00:26:07;;;;;;;29.03;9.47;;;3.60;99.90;;;;;;5073868;28;20267;-65
2022/01/20 00:28:45;;;;;;;24.70;9.00;;;3.60;99.90;;;;;;5073012;28;20174;-65
2022/01/20 00:33:56;;;;;;;35.50;10.10;;;3.50;99.90;;;;;;5074390;28;20208;-65
2022/01/20 00:39:05;;;;;;;37.13;9.90;;;3.50;99.90;;;;;;5074538;28;20575;-65
2022/01/20 00:41:32;;;;;;;27.77;10.00;;;3.50;99.90;;;;;;5073748;28;20189;-65
2022/01/20 00:43:58;;;;;;;26.60;10.07;;;3.50;99.90;;;;;;5073931;28;20229;-65
2022/01/20 00:46:23;;;;;;;25.10;9.77;;;3.50;99.90;;;;;;5072673;28;20645;-65
2022/01/20 00:48:49;;;;;;;35.17;11.50;;;3.50;99.90;;;;;;5073766;28;20178;-65
2022/01/20 00:51:15;;;;;;;27.07;9.43;;;3.40;99.90;;;;;;5073636;28;20182;-65
2022/01/20 00:53:44;;;;;;;24.33;10.50;;;3.40;99.90;;;;;;5073763;28;20182;-65
2022/01/20 00:56:13;;;;;;;25.67;9.27;;;3.40;99.90;;;;;;5073707;28;20197;-65
2022/01/20 00:58:40;;;;;;;24.90;9.57;;;3.40;99.90;;;;;;5073918;28;20188;-65
2022/01/20 01:01:05;;;;;;;23.43;9.83;;;3.40;99.90;;;;;;5072434;28;20182;-65
2022/01/20 01:03:31;;;;;;;32.93;9.23;;;3.40;99.90;;;;;;5072257;28;20696;-65
2022/01/20 01:06:20;;;;;;;31.50;10.03;;;3.40;99.90;;;;;;5073462;28;20193;-65
2022/01/20 01:08:45;;;;;;;33.00;9.70;;;3.40;99.90;;;;;;5073827;28;20151;-66
2022/01/20 01:11:11;;;;;;;32.70;9.50;;;3.40;99.90;;;;;;5073465;28;20226;-65
2022/01/20 01:13:37;;;;;;;29.03;9.37;;;3.40;99.90;;;;;;5073508;28;20180;-65
2022/01/20 01:16:06;;;;;;;29.37;9.40;;;3.40;99.90;;;;;;5073408;28;20611;-65
2022/01/20 01:22:04;;;;;;;30.53;10.63;;;3.40;99.90;;;;;;5073696;28;20259;-65
2022/01/20 01:24:02;;;;;;;31.33;10.90;;;3.50;99.90;;;;;;5072649;28;20201;-65
2022/01/20 01:26:28;;;;;;;31.10;9.97;;;3.50;99.90;;;;;;5073390;28;20221;-65
2022/01/20 01:28:56;;;;;;;21.70;9.50;;;3.50;99.90;;;;;;5073270;28;20174;-65
2022/01/20 01:31:32;;;;;;;24.13;8.90;;;3.50;99.90;;;;;;5073506;28;20634;-65
2022/01/20 01:34:00;;;;;;;38.97;10.10;;;3.60;99.90;;;;;;5073794;28;20165;-65
2022/01/20 01:36:28;;;;;;;27.90;9.77;;;3.60;99.90;;;;;;5071949;28;20221;-65
2022/01/20 01:38:55;;;;;;;29.23;9.77;;;3.60;99.90;;;;;;5073503;28;20173;-64
2022/01/20 01:41:30;;;;;;;24.13;9.37;;;3.60;99.90;;;;;;5072129;28;20660;-65
2022/01/20 01:43:57;;;;;;;29.10;9.93;;;3.70;99.90;;;;;;5073290;28;20245;-65
2022/01/20 01:46:23;;;;;;;31.80;9.70;;;3.60;99.90;;;;;;5073222;28;20185;-65
2022/01/20 01:48:49;;;;;;;37.07;10.10;;;3.60;99.90;;;;;;5073188;28;20673;-65
2022/01/20 01:51:15;;;;;;;27.33;9.93;;;3.60;99.90;;;;;;5073421;28;20166;-65
2022/01/20 01:53:41;;;;;;;35.77;10.57;;;3.70;99.90;;;;;;5073978;28;20619;-66
2022/01/20 01:56:07;;;;;;;33.67;10.23;;;3.70;99.90;;;;;;5073131;28;20198;-65
2022/01/20 01:58:33;;;;;;;37.60;10.63;;;3.70;99.90;;;;;;5076501;28;20176;-65
2022/01/20 02:01:00;;;;;;;39.60;10.20;;;3.80;99.90;;;;;;5075818;28;20193;-65
2022/01/20 02:03:26;;;;;;;37.20;10.27;;;3.80;99.90;;;;;;5078364;28;20208;-65
2022/01/20 02:19:13;;;;;;;27.30;9.97;;;3.90;99.90;;;;;;5077201;28;20166;-64
2022/01/20 02:21:51;;;;;;;27.43;10.33;;;3.90;99.90;;;;;;5076966;28;20547;-65
2022/01/20 02:24:18;;;;;;;25.23;10.20;;;3.90;99.90;;;;;;5076741;28;20630;-64
2022/01/20 02:26:44;;;;;;;26.93;9.87;;;4.00;99.90;;;;;;5075193;28;20705;-65
2022/01/20 02:29:10;;;;;;;30.10;11.37;;;4.00;99.90;;;;;;5075717;28;20181;-65
2022/01/20 02:31:36;;;;;;;39.23;11.73;;;4.00;99.90;;;;;;5077297;28;20166;-65
2022/01/20 02:34:02;;;;;;;27.23;9.97;;;4.00;99.90;;;;;;5076576;28;20166;-65
2022/01/20 02:36:29;;;;;;;25.00;9.07;;;4.00;99.90;;;;;;5076754;28;20194;-65
2022/01/20 02:39:00;;;;;;;26.90;9.27;;;4.00;99.90;;;;;;5078467;28;20170;-65
2022/01/20 02:46:54;;;;;;;29.03;9.77;;;4.00;99.90;;;;;;5076874;28;20290;-65
2022/01/20 02:49:20;;;;;;;29.00;9.20;;;4.00;99.90;;;;;;5076334;28;20236;-65
2022/01/20 02:51:47;;;;;;;34.67;9.83;;;4.00;99.90;;;;;;5076090;28;20170;-65
2022/01/20 02:54:13;;;;;;;27.07;9.50;;;4.00;99.90;;;;;;5076215;28;20170;-65
2022/01/20 02:56:39;;;;;;;27.97;10.27;;;4.00;99.90;;;;;;5076126;28;20201;-65
2022/01/20 02:59:04;;;;;;;26.90;10.27;;;4.00;99.90;;;;;;5076051;28;20622;-65
2022/01/20 03:01:31;;;;;;;29.97;9.23;;;3.90;99.90;;;;;;5076406;28;20227;-64
2022/01/20 03:03:58;;;;;;;22.10;9.20;;;3.90;99.90;;;;;;5075901;28;20201;-64
2022/01/20 03:06:24;;;;;;;33.20;9.60;;;3.90;99.90;;;;;;5076273;28;20604;-65
2022/01/20 03:08:50;;;;;;;25.00;9.10;;;3.90;99.90;;;;;;5075764;28;20181;-65
2022/01/20 03:11:15;;;;;;;24.00;8.43;;;3.90;99.90;;;;;;5076183;28;20244;-65
2022/01/20 03:13:41;;;;;;;18.10;7.90;;;3.90;99.90;;;;;;5075287;28;20231;-64
2022/01/20 03:16:07;;;;;;;21.90;9.00;;;3.90;99.90;;;;;;5075574;28;20194;-64
2022/01/20 03:18:33;;;;;;;23.97;8.63;;;3.90;99.90;;;;;;5075908;28;20638;-65
2022/01/20 03:20:59;;;;;;;23.30;8.90;;;3.90;99.90;;;;;;5075758;28;20181;-64
2022/01/20 03:23:25;;;;;;;23.03;8.90;;;3.90;99.90;;;;;;5075335;28;20197;-64
2022/01/20 03:25:51;;;;;;;21.70;8.27;;;3.90;99.90;;;;;;5075623;28;20257;-65
2022/01/20 03:28:16;;;;;;;19.27;8.30;;;3.90;99.90;;;;;;5074097;28;20546;-65
2022/01/20 03:30:42;;;;;;;21.30;8.10;;;3.90;99.90;;;;;;5075486;28;20304;-65
2022/01/20 03:33:08;;;;;;;14.83;7.77;;;3.90;99.90;;;;;;5075835;28;20569;-65
2022/01/20 03:35:34;;;;;;;20.67;8.50;;;3.80;99.90;;;;;;5075113;28;20194;-65
2022/01/20 03:38:00;;;;;;;18.07;7.27;;;3.80;99.90;;;;;;5075276;28;20174;-65
2022/01/20 03:40:26;;;;;;;21.27;7.40;;;3.90;99.90;;;;;;5075176;28;20181;-65
2022/01/20 03:42:52;;;;;;;21.33;7.63;;;3.80;99.90;;;;;;5073833;28;20208;-64
2022/01/20 03:45:18;;;;;;;19.83;7.73;;;3.80;99.90;;;;;;5075636;28;20670;-65
2022/01/20 03:47:44;;;;;;;21.97;8.27;;;3.70;99.90;;;;;;5073997;28;20178;-64
2022/01/20 03:50:59;;;;;;;20.20;8.20;;;3.70;99.90;;;;;;5075075;28;20193;-65
2022/01/20 03:52:56;;;;;;;23.03;7.87;;;3.70;99.90;;;;;;5074922;28;20189;-64
2022/01/20 03:55:22;;;;;;;19.77;8.17;;;3.70;99.90;;;;;;5074843;28;20202;-64
2022/01/20 03:57:48;;;;;;;17.30;7.67;;;3.70;99.90;;;;;;5075175;28;20189;-64
2022/01/20 04:00:14;;;;;;;22.47;7.73;;;3.70;99.90;;;;;;5074831;28;20182;-65
2022/01/20 04:02:40;;;;;;;16.10;7.13;;;3.70;99.90;;;;;;5075122;28;20209;-65
2022/01/20 04:05:06;;;;;;;19.80;7.27;;;3.70;99.90;;;;;;5074963;28;20162;-65
2022/01/20 04:07:32;;;;;;;15.83;7.90;;;3.70;99.90;;;;;;5074689;28;20645;-64
2022/01/20 04:09:58;;;;;;;16.40;7.50;;;3.70;99.90;;;;;;5073236;28;20186;-65
2022/01/20 04:12:23;;;;;;;18.13;6.97;;;3.70;99.90;;;;;;5074605;28;20272;-64
2022/01/20 04:14:49;;;;;;;18.47;7.83;;;3.70;99.90;;;;;;5074601;28;20261;-66
2022/01/20 04:17:20;;;;;;;17.93;7.33;;;3.70;99.90;;;;;;5074316;28;20188;-65
2022/01/20 04:19:46;;;;;;;19.27;7.03;;;3.70;99.90;;;;;;5073162;28;20180;-64
2022/01/20 04:22:13;;;;;;;15.00;7.40;;;3.70;99.90;;;;;;5074459;28;20202;-64
2022/01/20 04:24:38;;;;;;;18.47;7.47;;;3.60;99.90;;;;;;5073506;28;20541;-64
2022/01/20 04:27:05;;;;;;;19.37;7.70;;;3.70;99.90;;;;;;5073492;28;20217;-64
2022/01/20 04:29:32;;;;;;;17.63;9.03;;;3.60;99.90;;;;;;5074436;28;20224;-64
2022/01/20 04:31:58;;;;;;;19.27;7.63;;;3.60;99.90;;;;;;5074403;28;20201;-64
2022/01/20 04:34:24;;;;;;;13.00;7.10;;;3.70;99.90;;;;;;5074407;28;20193;-64
2022/01/20 04:36:53;;;;;;;15.73;7.30;;;3.60;99.90;;;;;;5074477;28;20692;-64
2022/01/20 04:39:25;;;;;;;15.00;7.37;;;3.60;99.90;;;;;;5074349;28;20173;-64
2022/01/20 04:41:52;;;;;;;13.97;7.90;;;3.70;99.90;;;;;;5072890;28;20166;-64
2022/01/20 04:44:32;;;;;;;21.37;8.77;;;3.70;99.90;;;;;;5074319;28;20219;-64
2022/01/20 04:57:59;;;;;;;18.33;8.57;;;3.60;99.90;;;;;;5074639;28;20558;-64
2022/01/20 05:00:25;;;;;;;19.97;8.17;;;3.60;99.90;;;;;;5073801;28;20185;-64
2022/01/20 05:02:51;;;;;;;17.93;8.57;;;3.60;99.90;;;;;;5073919;28;20202;-64
2022/01/20 05:05:17;;;;;;;18.73;8.60;;;3.60;99.90;;;;;;5074104;28;20201;-64
2022/01/20 05:07:43;;;;;;;15.00;8.57;;;3.60;99.90;;;;;;5072506;28;20181;-64
2022/01/20 05:10:11;;;;;;;19.63;8.43;;;3.60;99.90;;;;;;5074787;28;20174;-64
2022/01/20 05:15:20;;;;;;;20.67;8.17;;;3.60;99.90;;;;;;5074076;28;20209;-64
2022/01/20 05:17:46;;;;;;;21.17;9.17;;;3.60;99.90;;;;;;5074212;28;20181;-64
2022/01/20 05:20:11;;;;;;;23.27;8.47;;;3.60;99.90;;;;;;5073739;28;20231;-64
2022/01/20 05:22:37;;;;;;;16.87;8.33;;;3.60;99.90;;;;;;5072207;28;20296;-64
2022/01/20 05:25:05;;;;;;;22.57;9.43;;;3.50;99.90;;;;;;5073745;28;20670;-64
2022/01/20 05:27:30;;;;;;;20.77;9.70;;;3.50;99.90;;;;;;5073932;28;20193;-64
2022/01/20 05:29:57;;;;;;;19.80;9.30;;;3.50;99.90;;;;;;5073382;28;20656;-64
2022/01/20 05:32:23;;;;;;;21.23;10.33;;;3.50;99.90;;;;;;5073348;28;20178;-64
2022/01/20 05:34:49;;;;;;;17.33;9.63;;;3.50;99.90;;;;;;5071800;28;20188;-65
2022/01/20 05:37:16;;;;;;;15.90;9.23;;;3.50;99.90;;;;;;5074509;28;20264;-64
2022/01/20 05:39:42;;;;;;;17.37;9.17;;;3.50;99.90;;;;;;5077332;28;20185;-64
2022/01/20 05:42:08;;;;;;;19.37;9.33;;;3.50;99.90;;;;;;5075948;28;20213;-64
2022/01/20 05:44:34;;;;;;;18.50;8.37;;;3.40;99.90;;;;;;5077322;28;20253;-64
2022/01/20 05:47:06;;;;;;;11.87;8.53;;;3.40;99.90;;;;;;5077121;28;20193;-64
2022/01/20 05:49:32;;;;;;;14.27;8.17;;;3.40;99.90;;;;;;5075916;28;20173;-64
2022/01/20 05:51:58;;;;;;;27.33;8.73;;;3.40;99.90;;;;;;5075860;28;20178;-64
2022/01/20 05:54:24;;;;;;;18.10;7.13;;;3.40;99.90;;;;;;5077116;28;20177;-64
2022/01/20 05:56:51;;;;;;;14.77;7.47;;;3.40;99.90;;;;;;5076940;28;20233;-65
2022/01/20 05:59:17;;;;;;;18.50;6.93;;;3.30;99.90;;;;;;5077056;28;20178;-64
2022/01/20 06:01:46;;;;;;;12.13;6.07;;;3.30;99.90;;;;;;5075517;28;20181;-65
2022/01/20 06:04:11;;;;;;;10.83;6.37;;;3.30;99.90;;;;;;5075908;28;20260;-65
2022/01/20 06:06:37;;;;;;;11.83;7.17;;;3.30;99.90;;;;;;5076767;28;20224;-65
2022/01/20 06:09:05;;;;;;;12.00;6.20;;;3.20;99.90;;;;;;5076905;28;20522;-65
2022/01/20 06:11:31;;;;;;;10.90;6.60;;;3.10;99.90;;;;;;5076855;28;20318;-65
2022/01/20 06:13:57;;;;;;;10.57;5.90;;;3.10;99.90;;;;;;5075506;28;20555;-65
2022/01/20 06:16:23;;;;;;;16.53;6.70;;;3.00;99.90;;;;;;5076819;28;20246;-65
2022/01/20 06:18:49;;;;;;;9.07;6.07;;;2.90;99.90;;;;;;5075514;28;20634;-65
2022/01/20 06:21:15;;;;;;;9.40;5.90;;;2.90;99.90;;;;;;5077020;28;20174;-65
2022/01/20 06:23:41;;;;;;;12.53;6.00;;;2.90;99.90;;;;;;5076356;28;20696;-65
2022/01/20 06:26:07;;;;;;;7.03;6.33;;;2.90;99.90;;;;;;5075029;28;20283;-65
2022/01/20 06:28:34;;;;;;;10.50;6.47;;;2.90;99.90;;;;;;5075229;28;20177;-65
2022/01/20 06:31:00;;;;;;;10.70;6.80;;;2.90;99.90;;;;;;5076528;28;20281;-65
2022/01/20 06:33:25;;;;;;;9.80;6.40;;;2.90;99.90;;;;;;5076530;28;20577;-65
2022/01/20 06:35:51;;;;;;;9.93;6.67;;;2.90;99.90;;;;;;5078180;28;20217;-65
2022/01/20 06:38:18;;;;;;;15.60;7.90;;;3.00;99.90;;;;;;5074897;28;20630;-65
2022/01/20 06:40:44;;;;;;;21.07;7.33;;;3.00;99.90;;;;;;5076980;28;20626;-65
2022/01/20 06:43:10;;;;;;;11.73;6.30;;;3.00;99.90;;;;;;5076249;28;20563;-65
2022/01/20 06:45:36;;;;;;;12.33;6.47;;;3.00;99.90;;;;;;5076240;28;20190;-65
2022/01/20 06:48:01;;;;;;;14.37;6.63;;;3.00;99.90;;;;;;5075947;28;20203;-65
2022/01/20 06:50:27;;;;;;;11.20;6.77;;;3.00;99.90;;;;;;5076066;28;20624;-67
2022/01/20 06:52:54;;;;;;;8.37;6.60;;;2.80;99.90;;;;;;5074786;28;20185;-67
2022/01/20 06:55:23;;;;;;;16.43;7.80;;;2.70;99.90;;;;;;5076103;28;20201;-67
2022/01/20 06:57:49;;;;;;;20.23;7.17;;;2.70;99.90;;;;;;5074890;28;20182;-67
2022/01/20 07:00:18;;;;;;;13.47;6.40;;;2.70;99.90;;;;;;5076050;28;20178;-67
2022/01/20 07:02:45;;;;;;;10.13;6.33;;;2.70;99.90;;;;;;5074530;28;20280;-67
2022/01/20 07:05:13;;;;;;;16.00;8.07;;;2.70;99.90;;;;;;5075926;28;20271;-67
2022/01/20 07:07:39;;;;;;;23.27;8.47;;;2.60;99.90;;;;;;5075950;28;20178;-67
2022/01/20 07:10:06;;;;;;;15.60;7.30;;;2.60;99.90;;;;;;5075745;28;20174;-67
2022/01/20 07:12:32;;;;;;;14.57;7.43;;;2.60;99.90;;;;;;5075531;28;20244;-68
2022/01/20 07:14:58;;;;;;;11.23;7.20;;;2.60;99.90;;;;;;5075515;28;20186;-68
2022/01/20 07:17:23;;;;;;;14.93;7.27;;;2.60;99.90;;;;;;5075960;28;20181;-67
2022/01/20 07:19:49;;;;;;;14.13;7.37;;;2.60;99.90;;;;;;5074222;28;20216;-67
2022/01/20 07:22:15;;;;;;;13.40;6.80;;;2.70;99.90;;;;;;5075627;28;20562;-67
2022/01/20 07:24:41;;;;;;;17.17;7.63;;;2.70;99.90;;;;;;5075669;28;20174;-67
2022/01/20 07:27:08;;;;;;;21.50;7.10;;;2.70;99.90;;;;;;5073953;28;20214;-67
2022/01/20 07:29:34;;;;;;;11.73;6.73;;;2.70;99.90;;;;;;5075944;28;20179;-67
2022/01/20 07:32:02;;;;;;;13.60;6.70;;;2.70;99.90;;;;;;5074027;28;20185;-67
2022/01/20 07:34:28;;;;;;;11.37;6.77;;;2.70;99.90;;;;;;5073937;28;20180;-67
2022/01/20 07:36:54;;;;;;;11.73;6.53;;;2.70;99.90;;;;;;5075087;28;20198;-67
2022/01/20 07:39:20;;;;;;;15.47;7.20;;;2.70;99.90;;;;;;5073832;28;20185;-67
2022/01/20 07:41:46;;;;;;;15.57;7.30;;;2.70;99.90;;;;;;5074998;28;20178;-67
2022/01/20 07:44:12;;;;;;;15.37;7.20;;;2.70;99.90;;;;;;5074987;28;20174;-67
2022/01/20 07:46:37;;;;;;;16.80;7.47;;;2.70;99.90;;;;;;5074919;28;20197;-67
2022/01/20 07:49:04;;;;;;;12.40;6.60;;;2.60;99.90;;;;;;5074974;28;20193;-68
2022/01/20 07:51:30;;;;;;;14.73;7.47;;;2.70;99.90;;;;;;5073689;28;20268;-67
2022/01/20 07:53:56;;;;;;;16.80;7.23;;;2.60;99.90;;;;;;5073680;28;20178;-67
2022/01/20 07:56:22;;;;;;;21.90;8.67;;;2.70;99.90;;;;;;5074845;28;20674;-67
2022/01/20 07:58:47;;;;;;;17.03;7.43;;;2.70;99.90;;;;;;5075534;28;20231;-67
2022/01/20 08:01:13;;;;;;;20.73;7.40;;;2.70;99.90;;;;;;5075133;28;20161;-67
2022/01/20 08:03:39;;;;;;;14.33;7.20;;;2.80;99.90;;;;;;5075148;28;20626;-67
2022/01/20 08:06:05;;;;;;;18.17;7.50;;;2.80;99.90;;;;;;5075460;28;20658;-67
2022/01/20 08:08:31;;;;;;;11.37;6.40;;;2.80;99.90;;;;;;5077419;28;20229;-67
2022/01/20 08:10:56;;;;;;;13.20;6.53;;;2.60;99.90;;;;;;5077731;28;20202;-67
2022/01/20 08:13:22;;;;;;;7.63;5.83;;;2.50;99.90;;;;;;5077001;28;20673;-67
2022/01/20 08:15:48;;;;;;;12.43;6.50;;;2.50;99.90;;;;;;5076865;28;20293;-66
2022/01/20 08:18:14;;;;;;;10.10;6.00;;;2.40;99.90;;;;;;5075504;28;20182;-66
2022/01/20 08:20:40;;;;;;;11.73;6.37;;;2.40;99.90;;;;;;5075075;28;20177;-66
2022/01/20 08:23:06;;;;;;;9.87;6.27;;;2.40;99.90;;;;;;5074826;28;20228;-67
2022/01/20 08:25:33;;;;;;;10.70;6.77;;;2.30;99.90;;;;;;5074349;28;20194;-66
2022/01/20 08:27:59;;;;;;;7.70;6.47;;;2.30;99.90;;;;;;5074201;28;20185;-67
2022/01/20 08:30:25;;;;;;;17.13;7.33;;;2.30;99.90;;;;;;5074348;28;20630;-67
2022/01/20 08:32:53;;;;;;;13.53;6.50;;;2.30;99.90;;;;;;5074374;28;20176;-67
2022/01/20 08:35:21;;;;;;;9.00;6.50;;;2.40;99.90;;;;;;5074692;28;20205;-67
2022/01/20 08:37:47;;;;;;;14.90;7.03;;;2.40;99.90;;;;;;5074463;28;20177;-67
2022/01/20 08:40:16;;;;;;;11.73;6.90;;;2.50;99.90;;;;;;5074541;28;20205;-67
2022/01/20 08:42:44;;;;;;;18.50;7.43;;;2.50;99.90;;;;;;5074075;28;20211;-67
2022/01/20 08:45:12;;;;;;;8.07;6.57;;;2.60;99.90;;;;;;5074255;28;20178;-66
2022/01/20 08:47:39;;;;;;;13.67;6.87;;;2.70;99.90;;;;;;5074331;28;20526;-67
2022/01/20 08:50:06;;;;;;;12.50;6.47;;;2.80;99.90;;;;;;5074359;28;20518;-67
2022/01/20 08:52:32;;;;;;;18.63;8.33;;;2.80;99.90;;;;;;5074280;28;20178;-67
2022/01/20 08:54:59;;;;;;;9.77;6.97;;;2.90;99.90;;;;;;5073917;28;20512;-66
2022/01/20 08:57:26;;;;;;;17.07;8.20;;;2.90;99.90;;;;;;5072397;28;20650;-67
2022/01/20 08:59:52;;;;;;;14.37;7.07;;;2.90;99.90;;;;;;5072324;28;20182;-67
2022/01/20 09:02:18;;;;;;;17.97;7.47;;;2.90;99.90;;;;;;5073526;28;20579;-67
2022/01/20 09:04:44;;;;;;;20.47;7.50;;;2.90;99.90;;;;;;5074079;28;20177;-67
2022/01/20 09:07:10;;;;;;;14.27;6.70;;;2.90;99.90;;;;;;5073517;28;20223;-67
2022/01/20 09:09:41;;;;;;;16.93;7.07;;;2.90;99.90;;;;;;5073478;28;20185;-67
2022/01/20 09:17:27;;;;;;;12.97;7.20;;;2.90;99.90;;;;;;5073955;28;20626;-67
2022/01/20 09:19:53;;;;;;;17.67;7.23;;;3.00;99.90;;;;;;5073363;28;20657;-67
2022/01/20 09:22:20;;;;;;;14.47;7.07;;;2.90;99.90;;;;;;5073376;28;20197;-67
2022/01/20 09:24:46;;;;;;;16.20;7.13;;;2.80;99.90;;;;;;5073290;28;20635;-67
2022/01/20 09:27:13;;;;;;;14.43;7.17;;;2.70;99.90;;;;;;5073254;28;20209;-67
2022/01/20 09:29:40;;;;;;;13.60;7.23;;;2.50;99.90;;;;;;5073207;28;20252;-67
2022/01/20 09:32:09;;;;;;;12.50;7.67;;;2.50;99.90;;;;;;5071979;28;20174;-67
2022/01/20 09:34:35;;;;;;;13.97;7.13;;;2.50;99.90;;;;;;5073127;28;20173;-67
2022/01/20 09:37:01;;;;;;;22.93;7.50;;;2.50;99.90;;;;;;5073352;28;20204;-67
2022/01/20 09:39:26;;;;;;;18.27;7.73;;;2.60;99.90;;;;;;5073134;28;20703;-67
2022/01/20 09:41:52;;;;;;;14.40;6.83;;;2.60;99.90;;;;;;5073067;28;20170;-67
2022/01/20 09:44:18;;;;;;;15.13;7.20;;;2.70;99.90;;;;;;5073454;28;20587;-67
2022/01/20 09:46:46;;;;;;;19.07;7.97;;;2.70;99.90;;;;;;5073520;28;20643;-67
2022/01/20 09:49:12;;;;;;;17.47;7.13;;;2.80;99.90;;;;;;5073222;28;20170;-67
2022/01/20 09:51:39;;;;;;;15.93;6.97;;;2.80;99.90;;;;;;5073359;28;20170;-67
2022/01/20 09:54:05;;;;;;;16.33;6.43;;;2.80;99.90;;;;;;5073097;28;20174;-67
2022/01/20 09:56:32;;;;;;;11.33;6.63;;;2.80;99.90;;;;;;5073213;28;20193;-67
2022/01/20 09:58:58;;;;;;;15.40;6.40;;;2.80;99.90;;;;;;5073334;28;20177;-67
2022/01/20 10:01:44;;;;;;;17.10;6.80;;;2.80;99.90;;;;;;5073065;28;20178;-67
2022/01/20 10:04:30;;;;;;;15.67;7.20;;;2.80;99.90;;;;;;5072967;28;20206;-67
2022/01/20 10:07:00;;;;;;;11.20;7.27;;;2.90;99.90;;;;;;5072916;28;20277;-67
2022/01/20 10:09:38;;;;;;;14.60;6.87;;;2.90;99.90;;;;;;5072877;28;20655;-67
2022/01/20 10:12:06;;;;;;;12.63;6.47;;;3.00;99.90;;;;;;5073181;28;20150;-67
2022/01/20 10:14:40;;;;;;;13.70;6.40;;;3.10;99.90;;;;;;5071610;28;20202;-67
2022/01/20 10:17:18;;;;;;;12.07;6.30;;;3.10;99.90;;;;;;5072803;28;20186;-67
2022/01/20 10:19:45;;;;;;;16.67;7.60;;;3.20;99.90;;;;;;5071463;28;20669;-67
2022/01/20 10:22:16;;;;;;;11.77;6.40;;;3.30;99.90;;;;;;5072973;28;20686;-68
2022/01/20 10:24:59;;;;;;;14.60;7.17;;;3.30;99.90;;;;;;5073380;28;20639;-67
2022/01/20 10:27:25;;;;;;;11.57;6.47;;;3.10;99.90;;;;;;5076406;28;20192;-67
2022/01/20 10:29:56;;;;;;;12.27;6.73;;;3.10;99.90;;;;;;5075207;28;20174;-67
2022/01/20 10:32:22;;;;;;;18.90;7.77;;;3.10;99.90;;;;;;5076471;28;20174;-68
2022/01/20 10:34:47;;;;;;;15.97;7.50;;;2.90;99.90;;;;;;5076290;28;20269;-67
2022/01/20 10:37:16;;;;;;;12.23;6.57;;;2.80;99.90;;;;;;5076666;28;20658;-67
2022/01/20 10:39:45;;;;;;;16.10;7.23;;;2.70;99.90;;;;;;5074943;28;20639;-67
2022/01/20 10:42:14;;;;;;;12.67;6.80;;;2.70;99.90;;;;;;5074884;28;20209;-68
2022/01/20 10:44:51;;;;;;;16.97;7.47;;;2.80;99.90;;;;;;5076574;28;20571;-68
2022/01/20 10:47:26;;;;;;;15.80;7.00;;;2.90;99.90;;;;;;5076382;28;20220;-68
2022/01/20 10:49:52;;;;;;;14.40;6.47;;;3.00;99.90;;;;;;5075002;28;20166;-67
2022/01/20 10:52:21;;;;;;;14.50;6.60;;;3.00;99.90;;;;;;5076195;28;20715;-67
2022/01/20 10:54:53;;;;;;;15.50;6.93;;;3.00;99.90;;;;;;5076168;28;20170;-67
2022/01/20 10:57:27;;;;;;;11.63;6.20;;;3.10;99.90;;;;;;5074767;28;20178;-67
2022/01/20 10:59:59;;;;;;;10.53;6.47;;;3.10;99.90;;;;;;5074849;28;20165;-67
2022/01/20 11:02:28;;;;;;;16.30;6.77;;;3.20;99.90;;;;;;5074609;28;20204;-67
2022/01/20 11:04:55;;;;;;;11.93;7.07;;;3.30;99.90;;;;;;5074597;28;20518;-68
2022/01/20 11:07:21;;;;;;;11.20;6.97;;;3.30;99.90;;;;;;5074780;28;20566;-67
2022/01/20 11:09:55;;;;;;;10.57;6.47;;;3.30;99.90;;;;;;5074755;28;20176;-67
2022/01/20 11:12:21;;;;;;;12.00;6.73;;;3.30;99.90;;;;;;5074350;28;20178;-66
2022/01/20 11:14:51;;;;;;;12.73;6.93;;;3.40;99.90;;;;;;5074347;28;20162;-66
2022/01/20 11:17:30;;;;;;;12.23;6.50;;;3.60;99.90;;;;;;5074371;28;20210;-66
2022/01/20 11:20:18;;;;;;;9.80;6.80;;;3.60;99.90;;;;;;5074301;28;20166;-67
2022/01/20 11:22:57;;;;;;;11.97;6.50;;;3.60;99.90;;;;;;5075207;28;20204;-66
2022/01/20 11:25:26;;;;;;;14.07;6.97;;;3.60;99.90;;;;;;5074122;28;20562;-65
2022/01/20 11:28:08;;;;;;;12.70;6.37;;;3.50;99.90;;;;;;5075283;28;20189;-65
2022/01/20 11:30:38;;;;;;;11.50;6.73;;;3.50;99.90;;;;;;5075348;28;20288;-66
2022/01/20 11:33:05;;;;;;;13.60;6.17;;;3.50;99.90;;;;;;5075573;28;20157;-66
2022/01/20 11:35:50;;;;;;;12.03;6.30;;;3.40;99.90;;;;;;5074815;28;20198;-66
2022/01/20 11:38:22;;;;;;;16.20;7.57;;;3.50;99.90;;;;;;5075479;28;20154;-66
2022/01/20 11:40:54;;;;;;;13.73;6.60;;;3.40;99.90;;;;;;5075453;28;20170;-65
2022/01/20 11:43:31;;;;;;;14.77;7.47;;;3.40;99.90;;;;;;5075322;28;20190;-65
2022/01/20 11:46:06;;;;;;;14.30;7.27;;;3.40;99.90;;;;;;5075022;28;20193;-69
2022/01/20 11:48:32;;;;;;;11.20;6.93;;;3.30;99.90;;;;;;5075262;28;20149;-66
2022/01/20 11:51:08;;;;;;;18.00;6.87;;;3.30;99.90;;;;;;5075113;28;20181;-69
2022/01/20 11:53:42;;;;;;;17.67;7.47;;;3.30;99.90;;;;;;5075217;28;20153;-65
2022/01/20 11:56:09;;;;;;;14.10;7.60;;;3.30;99.90;;;;;;5075390;28;20193;-65
2022/01/20 11:58:35;;;;;;;27.07;8.20;;;3.20;99.90;;;;;;5074840;28;20204;-66
2022/01/20 12:01:10;;;;;;;14.43;6.90;;;3.10;99.90;;;;;;5074751;28;20175;-64
2022/01/20 12:03:37;;;;;;;22.37;7.73;;;3.00;99.90;;;;;;5075229;28;20553;-65
2022/01/20 12:06:13;;;;;;;15.30;6.93;;;3.10;99.90;;;;;;5074594;28;20268;-66
2022/01/20 12:09:13;;;;;;;9.80;6.80;;;3.10;99.90;;;;;;5074940;28;20150;-66
2022/01/20 12:11:46;;;;;;;11.47;6.93;;;3.20;99.90;;;;;;5073276;28;20178;-66
2022/01/20 12:14:14;;;;;;;16.23;7.20;;;3.10;99.90;;;;;;5074737;28;20173;-66
2022/01/20 12:16:43;;;;;;;13.97;7.33;;;3.10;99.90;;;;;;5073100;28;20778;-67
2022/01/20 12:19:10;;;;;;;13.20;7.53;;;3.20;99.90;;;;;;5074373;28;20253;-66
2022/01/20 12:21:45;;;;;;;23.80;7.50;;;3.30;99.90;;;;;;5074298;28;20205;-66
2022/01/20 12:24:11;;;;;;;15.83;7.30;;;3.50;99.90;;;;;;5074464;28;20193;-66
2022/01/20 12:26:37;;;;;;;11.20;7.73;;;3.70;99.90;;;;;;5072792;28;20216;-64
2022/01/20 12:29:08;;;;;;;21.93;7.00;;;3.90;99.90;;;;;;5074097;28;20170;-66
2022/01/20 12:31:55;;;;;;;10.53;7.47;;;3.90;99.90;;;;;;5072907;28;20252;-66
2022/01/20 12:34:22;;;;;;;13.97;6.90;;;4.00;99.90;;;;;;5074616;28;20168;-66
2022/01/20 12:36:58;;;;;;;18.40;6.77;;;4.00;99.90;;;;;;5073141;28;20569;-66
2022/01/20 12:39:29;;;;;;;10.17;6.60;;;3.90;99.90;;;;;;5074219;28;20165;-66
2022/01/20 12:42:00;;;;;;;16.13;6.90;;;3.90;99.90;;;;;;5073797;28;20255;-66
2022/01/20 12:44:48;;;;;;;19.20;7.37;;;3.90;99.90;;;;;;5073585;28;20166;-66
2022/01/20 12:47:26;;;;;;;9.87;6.50;;;4.00;99.90;;;;;;5073003;28;20206;-66
2022/01/20 12:49:57;;;;;;;15.10;7.03;;;4.20;99.90;;;;;;5072630;28;20169;-66
2022/01/20 12:52:23;;;;;;;10.83;6.73;;;4.00;99.90;;;;;;5073709;28;20249;-66
2022/01/20 12:54:50;;;;;;;17.47;6.70;;;4.00;99.90;;;;;;5074248;28;20207;-66
2022/01/20 12:57:16;;;;;;;17.57;7.03;;;4.00;99.90;;;;;;5073680;28;20688;-66
2022/01/20 12:59:44;;;;;;;11.83;6.53;;;3.90;99.90;;;;;;5074173;28;20170;-66
2022/01/20 13:02:27;;;;;;;7.93;5.97;;;3.90;99.90;;;;;;5073649;28;20580;-66
2022/01/20 13:05:02;;;;;;;13.77;6.73;;;4.00;99.90;;;;;;5073540;28;20513;-65
2022/01/20 13:07:30;;;;;;;15.77;7.17;;;3.90;99.90;;;;;;5073853;28;20207;-66
2022/01/20 13:10:03;;;;;;;17.03;7.13;;;3.90;99.90;;;;;;5072165;28;20264;-66
2022/01/20 13:12:40;;;;;;;18.87;6.70;;;4.00;99.90;;;;;;5072128;28;20166;-66
2022/01/20 13:15:17;;;;;;;12.93;6.60;;;3.80;99.90;;;;;;5073590;28;20162;-66
2022/01/20 13:17:44;;;;;;;10.77;7.00;;;3.70;99.90;;;;;;5073444;28;20158;-66
2022/01/20 13:20:16;;;;;;;10.33;6.67;;;3.70;99.90;;;;;;5072087;28;20270;-66
2022/01/20 13:22:54;;;;;;;18.13;7.23;;;3.60;99.90;;;;;;5073213;28;20201;-66
2022/01/20 13:25:26;;;;;;;8.23;6.60;;;3.60;99.90;;;;;;5072127;28;20610;-66
2022/01/20 13:28:14;;;;;;;14.77;7.23;;;3.70;99.90;;;;;;5073221;28;20212;-66
2022/01/20 13:30:47;;;;;;;13.77;6.30;;;3.70;99.90;;;;;;5073607;28;20574;-66
2022/01/20 13:33:13;;;;;;;12.97;6.77;;;3.80;99.90;;;;;;5073509;28;20154;-66
2022/01/20 13:35:44;;;;;;;15.33;6.57;;;3.80;99.90;;;;;;5072069;28;20293;-66
2022/01/20 13:38:10;;;;;;;8.97;5.90;;;3.90;99.90;;;;;;5073198;28;20185;-66
2022/01/20 13:40:46;;;;;;;11.73;6.90;;;3.90;99.90;;;;;;5073241;28;20181;-66
2022/01/20 13:45:59;;;;;;;15.63;6.67;;;3.80;99.90;;;;;;5073603;28;20692;-66
2022/01/20 13:48:32;;;;;;;17.90;7.23;;;3.70;99.90;;;;;;5073210;28;20526;-66
2022/01/20 13:51:00;;;;;;;16.53;7.03;;;3.60;99.90;;;;;;5073122;28;20169;-66
2022/01/20 13:53:29;;;;;;;13.30;6.93;;;3.50;99.90;;;;;;5071849;28;20538;-66
2022/01/20 13:55:58;;;;;;;13.13;6.77;;;3.30;99.90;;;;;;5071738;28;20202;-66
2022/01/20 13:58:30;;;;;;;10.07;6.93;;;3.30;99.90;;;;;;5074711;28;20598;-66